Maersk Iowa — KABL — position and weather

sailwx.info

Track history (hours):
 
Tides and Currents Weather Stations Pressure Air Temp Water Temp Dewpoint Dewpoint Depression Visibility Wind Speed Wind Dir Waves Ship Positions

Maersk Iowa

Owner: FARRELL LINES INC, Norfolk, VA. More information available from US FCC via Universal Licensing System and Coast Guard Vessel Documentation Center.

Last reported at 2017-Feb-22 06:00 UTC. Time now 2017-Feb-22 08:29 UTC.
Position N 36°48' W 074°24'.

Length 292 m; draft 13.3 m.

Type: Ship (hazmat cat A). MMSI: 367606000.

Wind from 360 at 10 knots

Barometer 1021.2 mb
Air temperature 10.0 ° C
Visibility: greater than 27.0 NM
Dewpoint 5.7 ° C
Water temperature 9.0 ° C

Date/timePositionNaut miles runAvg speedWind from/ knotsBaromVisibWave heightAir tempDewpointWater temp
2017-Feb-22 06:00N 36°48' W 074°24'7316.3 360 / 101021.227.0 10.0 5.7 9.0
2017-Feb-22 01:29N 36°55' W 075°55'1010.8
2017-Feb-22 00:33N 36°59' W 076°07'1110.7
2017-Feb-21 23:33N 36°57' W 076°20'4 4.1
2017-Feb-21 22:33N 36°53' W 076°21'0 0.0
2017-Feb-21 21:33N 36°53' W 076°21'0 0.0
2017-Feb-21 20:33N 36°53' W 076°21'0 0.0
2017-Feb-21 19:33N 36°53' W 076°21'0 0.0
2017-Feb-21 18:30N 36°53' W 076°21'0 0.0
2017-Feb-21 17:24N 36°53' W 076°21'0 0.0
2017-Feb-21 15:33N 36°53' W 076°21'0 0.0
2017-Feb-21 14:33N 36°53' W 076°21'0 0.0
2017-Feb-21 13:30N 36°53' W 076°21'0 0.0
2017-Feb-21 12:33N 36°53' W 076°21'0 0.0
2017-Feb-21 11:33N 36°53' W 076°21'2 2.4
2017-Feb-21 10:32N 36°55' W 076°20'10 9.9
2017-Feb-21 09:33N 36°59' W 076°09'1312.5
2017-Feb-21 08:33N 36°55' W 075°55'8 7.9
2017-Feb-21 07:30N 36°50' W 075°47'137 9.5
2017-Feb-20 17:05N 34°33' W 075°36'1121.6
2017-Feb-20 16:34N 34°23' W 075°44'48714.3
2017-Feb-19 06:34N 27°03' W 079°46'1414.3
2017-Feb-19 05:34N 26°49' W 079°47'2014.6
2017-Feb-19 04:11N 26°29' W 079°49'914.9
2017-Feb-19 03:33N 26°20' W 079°50'1514.8
2017-Feb-19 02:33N 26°05' W 079°52'1414.0
2017-Feb-19 01:33N 25°51' W 079°53'1313.3
2017-Feb-19 00:33N 25°38' W 079°54'1312.5
2017-Feb-18 23:33N 25°25' W 079°57'  
2017-Feb-16 15:29N 29°28' W 094°51'1010.6
2017-Feb-16 14:34N 29°37' W 094°57'3 2.7
2017-Feb-16 13:33N 29°37' W 095°00'0 0.3
2017-Feb-16 12:32N 29°37' W 095°00'0 0.0
2017-Feb-16 11:31N 29°37' W 095°00'0 0.0
2017-Feb-16 10:31N 29°37' W 095°00'0 0.0
2017-Feb-16 09:31N 29°37' W 095°00'0 0.0
2017-Feb-16 08:31N 29°37' W 095°00'0 0.0
2017-Feb-16 07:31N 29°37' W 095°00'0 0.0
2017-Feb-16 06:31N 29°37' W 095°00'0 0.0
2017-Feb-16 05:31N 29°37' W 095°00'0 0.0
2017-Feb-16 04:31N 29°37' W 095°00'0 0.0
2017-Feb-16 03:28N 29°37' W 095°00'0 0.0
2017-Feb-16 02:31N 29°37' W 095°00'0 0.0
2017-Feb-16 01:31N 29°37' W 095°00'0 0.0
2017-Feb-16 00:31N 29°37' W 095°00'0 0.0
2017-Feb-15 23:31N 29°37' W 095°00'0 0.0
2017-Feb-15 22:31N 29°37' W 095°00'0 0.0
2017-Feb-15 21:31N 29°37' W 095°00'0 0.0
2017-Feb-15 20:31N 29°37' W 095°00'0 0.0
2017-Feb-15 19:31N 29°37' W 095°00'0 0.0
2017-Feb-15 18:28N 29°37' W 095°00'0 0.0
2017-Feb-15 17:31N 29°37' W 095°00'0 0.0
2017-Feb-15 16:31N 29°37' W 095°00'0 0.0
2017-Feb-15 15:31N 29°37' W 095°00'0 0.0
2017-Feb-15 14:31N 29°37' W 095°00'0 0.0
2017-Feb-15 13:31N 29°37' W 095°00'0 0.0
2017-Feb-15 12:31N 29°37' W 095°00'0 0.0
2017-Feb-15 11:31N 29°37' W 095°00'0 0.0
2017-Feb-15 10:31N 29°37' W 095°00'0 0.0
2017-Feb-15 09:31N 29°37' W 095°00'0 0.0
2017-Feb-15 08:31N 29°37' W 095°00'0 0.0
2017-Feb-15 07:31N 29°37' W 095°00'0 0.0
2017-Feb-15 06:19N 29°37' W 095°00'0 0.0
2017-Feb-15 05:16N 29°37' W 095°00'0 0.0
2017-Feb-15 04:31N 29°37' W 095°00'0 0.0
2017-Feb-15 03:31N 29°37' W 095°00'0 0.0
2017-Feb-15 02:28N 29°37' W 095°00'0 0.0
2017-Feb-15 01:34N 29°37' W 095°00'5 5.2
2017-Feb-15 00:34N 29°34' W 094°55'1312.3
2017-Feb-14 23:32N 29°23' W 094°48'  
Track history (hours):
 
Tides and Currents Weather Stations Pressure Air Temp Water Temp Dewpoint Dewpoint Depression Visibility Wind Speed Wind Dir Waves Ship Positions

Maersk Iowa

Owner: FARRELL LINES INC, Norfolk, VA. More information available from US FCC via Universal Licensing System and Coast Guard Vessel Documentation Center.

Last reported at 2017-Feb-22 06:00 UTC. Time now 2017-Feb-22 08:29 UTC.
Position N 36°48' W 074°24'.

Length 292 m; draft 13.3 m.

Type: Ship (hazmat cat A). MMSI: 367606000.

Wind from 360 at 10 knots

Barometer 1021.2 mb
Air temperature 10.0 ° C
Visibility: greater than 27.0 NM
Dewpoint 5.7 ° C
Water temperature 9.0 ° C

Date/timePositionNaut miles runAvg speedWind from/ knotsBaromVisibWave heightAir tempDewpointWater temp
2017-Feb-22 06:00N 36°48' W 074°24'7316.3 360 / 101021.227.0 10.0 5.7 9.0
2017-Feb-22 01:29N 36°55' W 075°55'1010.8
2017-Feb-22 00:33N 36°59' W 076°07'1110.7
2017-Feb-21 23:33N 36°57' W 076°20'4 4.1
2017-Feb-21 22:33N 36°53' W 076°21'0 0.0
2017-Feb-21 21:33N 36°53' W 076°21'0 0.0
2017-Feb-21 20:33N 36°53' W 076°21'0 0.0
2017-Feb-21 19:33N 36°53' W 076°21'0 0.0
2017-Feb-21 18:30N 36°53' W 076°21'0 0.0
2017-Feb-21 17:24N 36°53' W 076°21'0 0.0
2017-Feb-21 15:33N 36°53' W 076°21'0 0.0
2017-Feb-21 14:33N 36°53' W 076°21'0 0.0
2017-Feb-21 13:30N 36°53' W 076°21'0 0.0
2017-Feb-21 12:33N 36°53' W 076°21'0 0.0
2017-Feb-21 11:33N 36°53' W 076°21'2 2.4
2017-Feb-21 10:32N 36°55' W 076°20'10 9.9
2017-Feb-21 09:33N 36°59' W 076°09'1312.5
2017-Feb-21 08:33N 36°55' W 075°55'8 7.9
2017-Feb-21 07:30N 36°50' W 075°47'137 9.5
2017-Feb-20 17:05N 34°33' W 075°36'1121.6
2017-Feb-20 16:34N 34°23' W 075°44'48714.3
2017-Feb-19 06:34N 27°03' W 079°46'1414.3
2017-Feb-19 05:34N 26°49' W 079°47'2014.6
2017-Feb-19 04:11N 26°29' W 079°49'914.9
2017-Feb-19 03:33N 26°20' W 079°50'1514.8
2017-Feb-19 02:33N 26°05' W 079°52'1414.0
2017-Feb-19 01:33N 25°51' W 079°53'1313.3
2017-Feb-19 00:33N 25°38' W 079°54'1312.5
2017-Feb-18 23:33N 25°25' W 079°57'  
2017-Feb-16 15:29N 29°28' W 094°51'1010.6
2017-Feb-16 14:34N 29°37' W 094°57'3 2.7
2017-Feb-16 13:33N 29°37' W 095°00'0 0.3
2017-Feb-16 12:32N 29°37' W 095°00'0 0.0
2017-Feb-16 11:31N 29°37' W 095°00'0 0.0
2017-Feb-16 10:31N 29°37' W 095°00'0 0.0
2017-Feb-16 09:31N 29°37' W 095°00'0 0.0
2017-Feb-16 08:31N 29°37' W 095°00'0 0.0
2017-Feb-16 07:31N 29°37' W 095°00'0 0.0
2017-Feb-16 06:31N 29°37' W 095°00'0 0.0
2017-Feb-16 05:31N 29°37' W 095°00'0 0.0
2017-Feb-16 04:31N 29°37' W 095°00'0 0.0
2017-Feb-16 03:28N 29°37' W 095°00'0 0.0
2017-Feb-16 02:31N 29°37' W 095°00'0 0.0
2017-Feb-16 01:31N 29°37' W 095°00'0 0.0
2017-Feb-16 00:31N 29°37' W 095°00'0 0.0
2017-Feb-15 23:31N 29°37' W 095°00'0 0.0
2017-Feb-15 22:31N 29°37' W 095°00'0 0.0
2017-Feb-15 21:31N 29°37' W 095°00'0 0.0
2017-Feb-15 20:31N 29°37' W 095°00'0 0.0
2017-Feb-15 19:31N 29°37' W 095°00'0 0.0
2017-Feb-15 18:28N 29°37' W 095°00'0 0.0
2017-Feb-15 17:31N 29°37' W 095°00'0 0.0
2017-Feb-15 16:31N 29°37' W 095°00'0 0.0
2017-Feb-15 15:31N 29°37' W 095°00'0 0.0
2017-Feb-15 14:31N 29°37' W 095°00'0 0.0
2017-Feb-15 13:31N 29°37' W 095°00'0 0.0
2017-Feb-15 12:31N 29°37' W 095°00'0 0.0
2017-Feb-15 11:31N 29°37' W 095°00'0 0.0
2017-Feb-15 10:31N 29°37' W 095°00'0 0.0
2017-Feb-15 09:31N 29°37' W 095°00'0 0.0
2017-Feb-15 08:31N 29°37' W 095°00'0 0.0
2017-Feb-15 07:31N 29°37' W 095°00'0 0.0
2017-Feb-15 06:19N 29°37' W 095°00'0 0.0
2017-Feb-15 05:16N 29°37' W 095°00'0 0.0
2017-Feb-15 04:31N 29°37' W 095°00'0 0.0
2017-Feb-15 03:31N 29°37' W 095°00'0 0.0
2017-Feb-15 02:28N 29°37' W 095°00'0 0.0
2017-Feb-15 01:34N 29°37' W 095°00'5 5.2
2017-Feb-15 00:34N 29°34' W 094°55'1312.3
2017-Feb-14 23:32N 29°23' W 094°48'  

Dump ship's entire track history